PGT81CB LTAI-LTFJ
Flight info
| Callsign | PGT81CB |
|---|---|
| Flight time | 0h 55m |
| Altitude | 34000 |
| Route | LTAI/36R EKSE1F EKSEN UL610 ETAMP ETAM1H LTFJ/24L |
| Aircraft | A320/M-SDE3FGHIRWY/LB1 |
Departure
| Time | 2026-05-05 14:25 |
|---|---|
| Airport | Antalya International Airport (LTAI) |
Arrival
| Time | 2026-05-05 15:20 |
|---|---|
| Airport | Istanbul Sabiha Gökçen International Airport (LTFJ) |
| Time | Latitude | Longitude | Altitude | Speed | Heading |
|---|---|---|---|---|---|
| 2026-05-05 13:22 | 36.91338 | 30.80071 | 176 ft | 0 kts | 96° |
| 2026-05-05 14:09 | 36.91338 | 30.80069 | 175 ft | 2 kts | 96° |
| 2026-05-05 14:09 | 36.91341 | 30.80037 | 175 ft | 4 kts | 97° |
| 2026-05-05 14:10 | 36.91344 | 30.80004 | 175 ft | 4 kts | 98° |
| 2026-05-05 14:10 | 36.91348 | 30.79970 | 175 ft | 4 kts | 101° |
| 2026-05-05 14:10 | 36.91354 | 30.79937 | 175 ft | 4 kts | 107° |
| 2026-05-05 14:10 | 36.91364 | 30.79908 | 175 ft | 4 kts | 139° |
| 2026-05-05 14:11 | 36.91375 | 30.79899 | 175 ft | 0 kts | 185° |
| 2026-05-05 14:16 | 36.91367 | 30.79898 | 175 ft | 3 kts | 185° |
| 2026-05-05 14:16 | 36.91313 | 30.79891 | 175 ft | 11 kts | 186° |
| 2026-05-05 14:17 | 36.91196 | 30.79875 | 175 ft | 23 kts | 186° |
| 2026-05-05 14:17 | 36.91019 | 30.79851 | 175 ft | 24 kts | 187° |
| 2026-05-05 14:17 | 36.90920 | 30.79836 | 175 ft | 10 kts | 188° |
| 2026-05-05 14:17 | 36.90903 | 30.79754 | 176 ft | 11 kts | 240° |
| 2026-05-05 14:18 | 36.90817 | 30.79735 | 175 ft | 16 kts | 186° |
| 2026-05-05 14:18 | 36.90724 | 30.79722 | 175 ft | 24 kts | 185° |
| 2026-05-05 14:18 | 36.90540 | 30.79698 | 176 ft | 27 kts | 187° |
| 2026-05-05 14:18 | 36.90404 | 30.79731 | 175 ft | 17 kts | 114° |
| 2026-05-05 14:19 | 36.90391 | 30.79887 | 175 ft | 20 kts | 97° |
| 2026-05-05 14:19 | 36.90374 | 30.80067 | 176 ft | 22 kts | 97° |
| 2026-05-05 14:19 | 36.90363 | 30.80199 | 176 ft | 24 kts | 96° |
| 2026-05-05 14:19 | 36.90343 | 30.80414 | 176 ft | 26 kts | 96° |
| 2026-05-05 14:20 | 36.90324 | 30.80629 | 176 ft | 23 kts | 96° |
| 2026-05-05 14:20 | 36.90318 | 30.80761 | 176 ft | 13 kts | 73° |
| 2026-05-05 14:20 | 36.90407 | 30.80803 | 176 ft | 16 kts | 6° |
| 2026-05-05 14:20 | 36.90527 | 30.80820 | 176 ft | 19 kts | 7° |
| 2026-05-05 14:21 | 36.90668 | 30.80839 | 175 ft | 22 kts | 7° |
| 2026-05-05 14:21 | 36.90826 | 30.80862 | 175 ft | 24 kts | 6° |
| 2026-05-05 14:21 | 36.90993 | 30.80884 | 175 ft | 22 kts | 6° |
| 2026-05-05 14:21 | 36.91113 | 30.80911 | 175 ft | 10 kts | 33° |
| 2026-05-05 14:22 | 36.91139 | 30.80976 | 176 ft | 8 kts | 91° |
| 2026-05-05 14:22 | 36.91135 | 30.81017 | 176 ft | 0 kts | 96° |
| 2026-05-05 14:23 | 36.91133 | 30.81042 | 176 ft | 5 kts | 96° |
| 2026-05-05 14:23 | 36.91127 | 30.81110 | 176 ft | 9 kts | 96° |
| 2026-05-05 14:23 | 36.91094 | 30.81136 | 176 ft | 4 kts | 186° |
| 2026-05-05 14:24 | 36.91092 | 30.81136 | 176 ft | 0 kts | 186° |
| 2026-05-05 14:24 | 36.91075 | 30.81134 | 176 ft | 20 kts | 186° |
| 2026-05-05 14:24 | 36.90682 | 30.81080 | 177 ft | 90 kts | 186° |
| 2026-05-05 14:24 | 36.89867 | 30.80967 | 177 ft | 144 kts | 186° |
| 2026-05-05 14:25 | 36.88756 | 30.80802 | 432 ft | 165 kts | 186° |
| 2026-05-05 14:25 | 36.87624 | 30.80865 | 1136 ft | 164 kts | 171° |
| 2026-05-05 14:25 | 36.86448 | 30.81096 | 1598 ft | 181 kts | 171° |
| 2026-05-05 14:25 | 36.85129 | 30.81337 | 1927 ft | 202 kts | 171° |
| 2026-05-05 14:26 | 36.83684 | 30.81594 | 2403 ft | 217 kts | 173° |
| 2026-05-05 14:26 | 36.82167 | 30.81867 | 3112 ft | 223 kts | 173° |
| 2026-05-05 14:26 | 36.80634 | 30.82141 | 3990 ft | 221 kts | 174° |
| 2026-05-05 14:26 | 36.79125 | 30.82661 | 4629 ft | 236 kts | 156° |
| 2026-05-05 14:27 | 36.77569 | 30.83561 | 5002 ft | 260 kts | 155° |
| 2026-05-05 14:27 | 36.75932 | 30.84585 | 5523 ft | 274 kts | 148° |
| 2026-05-05 14:27 | 36.74524 | 30.86212 | 6312 ft | 282 kts | 124° |
| 2026-05-05 14:27 | 36.73731 | 30.88421 | 7123 ft | 280 kts | 100° |
| 2026-05-05 14:28 | 36.73495 | 30.90843 | 7924 ft | 284 kts | 94° |
| 2026-05-05 14:28 | 36.73308 | 30.93304 | 8735 ft | 287 kts | 94° |
| 2026-05-05 14:28 | 36.73116 | 30.95803 | 9544 ft | 291 kts | 93° |
| 2026-05-05 14:28 | 36.72918 | 30.98327 | 10332 ft | 295 kts | 93° |
| 2026-05-05 14:29 | 36.72712 | 31.00902 | 10913 ft | 307 kts | 93° |
| 2026-05-05 14:29 | 36.72492 | 31.03657 | 11145 ft | 331 kts | 93° |
| 2026-05-05 14:29 | 36.72259 | 31.06613 | 11329 ft | 353 kts | 91° |
| 2026-05-05 14:29 | 36.72535 | 31.09664 | 11753 ft | 359 kts | 67° |
| 2026-05-05 14:30 | 36.73880 | 31.12248 | 12401 ft | 357 kts | 40° |
| 2026-05-05 14:30 | 36.75989 | 31.13808 | 13064 ft | 355 kts | 15° |
| 2026-05-05 14:30 | 36.78400 | 31.14307 | 13755 ft | 356 kts | 1° |
| 2026-05-05 14:30 | 36.80873 | 31.14143 | 14463 ft | 357 kts | 348° |
| 2026-05-05 14:31 | 36.83254 | 31.13251 | 15164 ft | 358 kts | 341° |
| 2026-05-05 14:31 | 36.85618 | 31.12254 | 15840 ft | 360 kts | 341° |
| 2026-05-05 14:31 | 36.87993 | 31.11237 | 16509 ft | 362 kts | 341° |
| 2026-05-05 14:31 | 36.90384 | 31.10204 | 17152 ft | 364 kts | 341° |
| 2026-05-05 14:32 | 36.92782 | 31.09165 | 17764 ft | 366 kts | 341° |
| 2026-05-05 14:32 | 36.95195 | 31.08117 | 18387 ft | 368 kts | 341° |
| 2026-05-05 14:32 | 36.97625 | 31.07065 | 18996 ft | 370 kts | 340° |
| 2026-05-05 14:32 | 37.00064 | 31.06013 | 19597 ft | 372 kts | 340° |
| 2026-05-05 14:33 | 37.02520 | 31.04951 | 20180 ft | 374 kts | 340° |
| 2026-05-05 14:33 | 37.03557 | 31.04502 | 20417 ft | 374 kts | 340° |
| 2026-05-05 14:33 | 37.06025 | 31.03431 | 20960 ft | 376 kts | 340° |
| 2026-05-05 14:33 | 37.08506 | 31.02354 | 21495 ft | 378 kts | 340° |
| 2026-05-05 14:34 | 37.10990 | 31.01276 | 22000 ft | 379 kts | 340° |
| 2026-05-05 14:34 | 37.13487 | 31.00194 | 22482 ft | 381 kts | 340° |
| 2026-05-05 14:34 | 37.16000 | 30.99106 | 22952 ft | 382 kts | 340° |
| 2026-05-05 14:34 | 37.18513 | 30.98016 | 23392 ft | 383 kts | 340° |
| 2026-05-05 14:35 | 37.21010 | 30.96930 | 23816 ft | 385 kts | 340° |
| 2026-05-05 14:35 | 37.23580 | 30.95811 | 23963 ft | 385 kts | 340° |
| 2026-05-05 14:35 | 37.26074 | 30.94724 | 23991 ft | 384 kts | 340° |
| 2026-05-05 14:35 | 37.28594 | 30.93622 | 23992 ft | 383 kts | 340° |
| 2026-05-05 14:36 | 37.31114 | 30.92520 | 23996 ft | 383 kts | 340° |
| 2026-05-05 14:36 | 37.33635 | 30.91420 | 23998 ft | 384 kts | 340° |
| 2026-05-05 14:36 | 37.36160 | 30.90320 | 23999 ft | 384 kts | 340° |
| 2026-05-05 14:36 | 37.38684 | 30.89220 | 24009 ft | 384 kts | 340° |
| 2026-05-05 14:37 | 37.41211 | 30.88115 | 24008 ft | 384 kts | 340° |
| 2026-05-05 14:37 | 37.43735 | 30.87009 | 24009 ft | 384 kts | 340° |
| 2026-05-05 14:37 | 37.46269 | 30.85902 | 24016 ft | 385 kts | 340° |
| 2026-05-05 14:37 | 37.48802 | 30.84796 | 24016 ft | 385 kts | 339° |
| 2026-05-05 14:38 | 37.51335 | 30.83685 | 24017 ft | 385 kts | 340° |
| 2026-05-05 14:38 | 37.53869 | 30.82571 | 24022 ft | 386 kts | 340° |
| 2026-05-05 14:38 | 37.56405 | 30.81455 | 24026 ft | 386 kts | 339° |
| 2026-05-05 14:38 | 37.58941 | 30.80337 | 24024 ft | 386 kts | 339° |
| 2026-05-05 14:39 | 37.61478 | 30.79216 | 24033 ft | 386 kts | 339° |
| 2026-05-05 14:39 | 37.64020 | 30.78093 | 24033 ft | 386 kts | 340° |
| 2026-05-05 14:39 | 37.66555 | 30.76977 | 24037 ft | 387 kts | 340° |
| 2026-05-05 14:39 | 37.69091 | 30.75862 | 24035 ft | 386 kts | 340° |
| 2026-05-05 14:40 | 37.71633 | 30.74742 | 24042 ft | 386 kts | 340° |
| 2026-05-05 14:40 | 37.74131 | 30.73638 | 24044 ft | 385 kts | 339° |
| 2026-05-05 14:40 | 37.76662 | 30.72516 | 24045 ft | 386 kts | 340° |
| 2026-05-05 14:40 | 37.79204 | 30.71386 | 24045 ft | 387 kts | 340° |
| 2026-05-05 14:41 | 37.81745 | 30.70262 | 24049 ft | 387 kts | 340° |
| 2026-05-05 14:41 | 37.84289 | 30.69139 | 24054 ft | 387 kts | 339° |
| 2026-05-05 14:41 | 37.86834 | 30.68012 | 24053 ft | 388 kts | 339° |
| 2026-05-05 14:41 | 37.89377 | 30.66875 | 24054 ft | 387 kts | 339° |
| 2026-05-05 14:42 | 37.91887 | 30.65635 | 24052 ft | 387 kts | 336° |
| 2026-05-05 14:42 | 37.94366 | 30.64296 | 24054 ft | 387 kts | 335° |
| 2026-05-05 14:42 | 37.96831 | 30.62905 | 24255 ft | 389 kts | 335° |
| 2026-05-05 14:42 | 37.99312 | 30.61491 | 24683 ft | 391 kts | 335° |
| 2026-05-05 14:43 | 38.01804 | 30.60079 | 25062 ft | 394 kts | 335° |
| 2026-05-05 14:43 | 38.04326 | 30.58669 | 25405 ft | 397 kts | 336° |
| 2026-05-05 14:43 | 38.06865 | 30.57270 | 25763 ft | 399 kts | 336° |
| 2026-05-05 14:43 | 38.09421 | 30.55872 | 26120 ft | 401 kts | 336° |
| 2026-05-05 14:44 | 38.11957 | 30.54487 | 26473 ft | 403 kts | 336° |
| 2026-05-05 14:44 | 38.14533 | 30.53078 | 26876 ft | 401 kts | 336° |
| 2026-05-05 14:44 | 38.17027 | 30.51712 | 28018 ft | 380 kts | 336° |
| 2026-05-05 14:44 | 38.19402 | 30.50411 | 29145 ft | 363 kts | 335° |
| 2026-05-05 14:45 | 38.21710 | 30.49143 | 29683 ft | 362 kts | 335° |
| 2026-05-05 14:45 | 38.24043 | 30.47853 | 29934 ft | 368 kts | 335° |
| 2026-05-05 14:45 | 38.26414 | 30.46542 | 30036 ft | 376 kts | 335° |
| 2026-05-05 14:45 | 38.28849 | 30.45196 | 30051 ft | 386 kts | 335° |
| 2026-05-05 14:46 | 38.33892 | 30.42413 | 30057 ft | 402 kts | 335° |
| 2026-05-05 14:46 | 38.39066 | 30.39560 | 30057 ft | 405 kts | 335° |
| 2026-05-05 14:47 | 38.44247 | 30.36699 | 30056 ft | 406 kts | 335° |
| 2026-05-05 14:47 | 38.49391 | 30.33851 | 30056 ft | 406 kts | 335° |
| 2026-05-05 14:48 | 38.54571 | 30.30974 | 30054 ft | 406 kts | 335° |
| 2026-05-05 14:48 | 38.59753 | 30.28096 | 30055 ft | 406 kts | 335° |
| 2026-05-05 14:49 | 38.64937 | 30.25220 | 30048 ft | 406 kts | 335° |
| 2026-05-05 14:49 | 38.70115 | 30.22336 | 30048 ft | 406 kts | 335° |
| 2026-05-05 14:50 | 38.75290 | 30.19458 | 30047 ft | 405 kts | 335° |
| 2026-05-05 14:50 | 38.80471 | 30.16571 | 30047 ft | 406 kts | 335° |
| 2026-05-05 14:51 | 38.85611 | 30.13685 | 30047 ft | 406 kts | 335° |
| 2026-05-05 14:51 | 38.90799 | 30.10777 | 30053 ft | 406 kts | 336° |
| 2026-05-05 14:52 | 38.95989 | 30.07865 | 30053 ft | 407 kts | 335° |
| 2026-05-05 14:52 | 39.01178 | 30.04946 | 30048 ft | 407 kts | 335° |
| 2026-05-05 14:53 | 39.06366 | 30.02011 | 30049 ft | 407 kts | 335° |
| 2026-05-05 14:53 | 39.11566 | 29.99079 | 30050 ft | 408 kts | 335° |
| 2026-05-05 14:54 | 39.16777 | 29.96144 | 30039 ft | 410 kts | 335° |
| 2026-05-05 14:54 | 39.21980 | 29.93201 | 30030 ft | 412 kts | 335° |
| 2026-05-05 14:55 | 39.27236 | 29.90222 | 30034 ft | 413 kts | 335° |
| 2026-05-05 14:55 | 39.32508 | 29.87240 | 30042 ft | 414 kts | 335° |
| 2026-05-05 14:56 | 39.37783 | 29.84239 | 29821 ft | 411 kts | 335° |
| 2026-05-05 14:56 | 39.40383 | 29.82766 | 28333 ft | 411 kts | 335° |
| 2026-05-05 14:56 | 39.43043 | 29.81268 | 26476 ft | 420 kts | 336° |
| 2026-05-05 14:57 | 39.45735 | 29.79761 | 25128 ft | 419 kts | 336° |
| 2026-05-05 14:57 | 39.48348 | 29.78302 | 24773 ft | 394 kts | 336° |
| 2026-05-05 14:57 | 39.50850 | 29.76897 | 24238 ft | 391 kts | 336° |
| 2026-05-05 14:57 | 39.53309 | 29.75510 | 24007 ft | 380 kts | 336° |
| 2026-05-05 14:58 | 39.55704 | 29.74157 | 23756 ft | 372 kts | 336° |
| 2026-05-05 14:58 | 39.58066 | 29.72827 | 23504 ft | 369 kts | 336° |
| 2026-05-05 14:58 | 39.60414 | 29.71505 | 23247 ft | 367 kts | 336° |
| 2026-05-05 14:58 | 39.62753 | 29.70187 | 23001 ft | 366 kts | 336° |
| 2026-05-05 14:59 | 39.65091 | 29.68866 | 22767 ft | 366 kts | 336° |
| 2026-05-05 14:59 | 39.67419 | 29.67552 | 22396 ft | 364 kts | 337° |
| 2026-05-05 14:59 | 39.69710 | 29.66261 | 21999 ft | 363 kts | 337° |
| 2026-05-05 14:59 | 39.72017 | 29.64961 | 21588 ft | 361 kts | 337° |
| 2026-05-05 15:00 | 39.74312 | 29.63666 | 21183 ft | 359 kts | 337° |
| 2026-05-05 15:00 | 39.75857 | 29.62794 | 20912 ft | 358 kts | 337° |
| 2026-05-05 15:00 | 39.78875 | 29.61086 | 20379 ft | 356 kts | 337° |
| 2026-05-05 15:00 | 39.81142 | 29.59796 | 19980 ft | 355 kts | 337° |
| 2026-05-05 15:01 | 39.83381 | 29.58467 | 19678 ft | 352 kts | 336° |
| 2026-05-05 15:01 | 39.85607 | 29.57073 | 18798 ft | 354 kts | 335° |
| 2026-05-05 15:01 | 39.87809 | 29.55648 | 17923 ft | 352 kts | 335° |
| 2026-05-05 15:01 | 39.89955 | 29.54239 | 17427 ft | 339 kts | 334° |
| 2026-05-05 15:02 | 39.92030 | 29.52876 | 17001 ft | 331 kts | 334° |
| 2026-05-05 15:02 | 39.94084 | 29.51536 | 16577 ft | 330 kts | 334° |
| 2026-05-05 15:02 | 39.96142 | 29.50203 | 16155 ft | 330 kts | 334° |
| 2026-05-05 15:02 | 39.98198 | 29.48879 | 15729 ft | 329 kts | 334° |
| 2026-05-05 15:03 | 40.00254 | 29.47559 | 15288 ft | 330 kts | 334° |
| 2026-05-05 15:03 | 40.02312 | 29.46237 | 14844 ft | 329 kts | 334° |
| 2026-05-05 15:03 | 40.04369 | 29.44913 | 14378 ft | 330 kts | 334° |
| 2026-05-05 15:03 | 40.06427 | 29.43587 | 13911 ft | 330 kts | 334° |
| 2026-05-05 15:04 | 40.08488 | 29.42258 | 13420 ft | 331 kts | 334° |
| 2026-05-05 15:04 | 40.10525 | 29.40944 | 12933 ft | 331 kts | 334° |
| 2026-05-05 15:04 | 40.12576 | 29.39615 | 12519 ft | 326 kts | 334° |
| 2026-05-05 15:04 | 40.14592 | 29.38309 | 11864 ft | 320 kts | 334° |
| 2026-05-05 15:05 | 40.18457 | 29.35806 | 10817 ft | 300 kts | 334° |
| 2026-05-05 15:05 | 40.20283 | 29.34617 | 10640 ft | 287 kts | 334° |
| 2026-05-05 15:05 | 40.22036 | 29.33478 | 10513 ft | 276 kts | 334° |
| 2026-05-05 15:06 | 40.23186 | 29.32732 | 10432 ft | 269 kts | 334° |
| 2026-05-05 15:06 | 40.24839 | 29.31660 | 10215 ft | 263 kts | 334° |
| 2026-05-05 15:06 | 40.26462 | 29.30607 | 9965 ft | 259 kts | 334° |
| 2026-05-05 15:06 | 40.28067 | 29.29564 | 9835 ft | 258 kts | 334° |
| 2026-05-05 15:07 | 40.29657 | 29.28529 | 9730 ft | 259 kts | 333° |
| 2026-05-05 15:07 | 40.31283 | 29.27466 | 9611 ft | 257 kts | 333° |
| 2026-05-05 15:07 | 40.32862 | 29.26433 | 9469 ft | 257 kts | 333° |
| 2026-05-05 15:07 | 40.34476 | 29.25378 | 9185 ft | 256 kts | 333° |
| 2026-05-05 15:08 | 40.36065 | 29.24339 | 8868 ft | 255 kts | 333° |
| 2026-05-05 15:08 | 40.37650 | 29.23304 | 8542 ft | 254 kts | 333° |
| 2026-05-05 15:08 | 40.39223 | 29.22254 | 8209 ft | 253 kts | 328° |
| 2026-05-05 15:08 | 40.40559 | 29.20794 | 8018 ft | 250 kts | 311° |
| 2026-05-05 15:09 | 40.41533 | 29.18902 | 8018 ft | 252 kts | 302° |
| 2026-05-05 15:09 | 40.42428 | 29.16953 | 8015 ft | 253 kts | 302° |
| 2026-05-05 15:09 | 40.43337 | 29.14981 | 8009 ft | 252 kts | 302° |
| 2026-05-05 15:09 | 40.44290 | 29.13048 | 7995 ft | 252 kts | 312° |
| 2026-05-05 15:10 | 40.45694 | 29.11722 | 7874 ft | 250 kts | 339° |
| 2026-05-05 15:10 | 40.47374 | 29.11131 | 7756 ft | 250 kts | 346° |
| 2026-05-05 15:10 | 40.49064 | 29.10601 | 7629 ft | 250 kts | 346° |
| 2026-05-05 15:10 | 40.50754 | 29.10063 | 7502 ft | 249 kts | 346° |
| 2026-05-05 15:11 | 40.52436 | 29.09522 | 7400 ft | 249 kts | 346° |
| 2026-05-05 15:11 | 40.54116 | 29.08978 | 7286 ft | 248 kts | 346° |
| 2026-05-05 15:11 | 40.55793 | 29.08435 | 7151 ft | 248 kts | 346° |
| 2026-05-05 15:11 | 40.57465 | 29.07891 | 7035 ft | 248 kts | 346° |
| 2026-05-05 15:12 | 40.59141 | 29.07342 | 6925 ft | 248 kts | 346° |
| 2026-05-05 15:12 | 40.60808 | 29.06795 | 6808 ft | 247 kts | 346° |
| 2026-05-05 15:12 | 40.62472 | 29.06249 | 6683 ft | 246 kts | 346° |
| 2026-05-05 15:12 | 40.64133 | 29.05707 | 6560 ft | 245 kts | 346° |
| 2026-05-05 15:13 | 40.65788 | 29.05163 | 6368 ft | 245 kts | 346° |
| 2026-05-05 15:13 | 40.67443 | 29.04618 | 5961 ft | 246 kts | 346° |
| 2026-05-05 15:13 | 40.69062 | 29.04089 | 5794 ft | 231 kts | 346° |
| 2026-05-05 15:13 | 40.70552 | 29.03605 | 5488 ft | 219 kts | 346° |
| 2026-05-05 15:14 | 40.72032 | 29.03122 | 5039 ft | 219 kts | 346° |
| 2026-05-05 15:14 | 40.73495 | 29.02647 | 4600 ft | 215 kts | 345° |
| 2026-05-05 15:14 | 40.74950 | 29.02181 | 4372 ft | 216 kts | 349° |
| 2026-05-05 15:14 | 40.76439 | 29.02248 | 4248 ft | 214 kts | 16° |
| 2026-05-05 15:15 | 40.77709 | 29.03149 | 3945 ft | 210 kts | 42° |
| 2026-05-05 15:15 | 40.78588 | 29.04682 | 3480 ft | 210 kts | 57° |
| 2026-05-05 15:15 | 40.79365 | 29.06317 | 3054 ft | 208 kts | 57° |
| 2026-05-05 15:15 | 40.80128 | 29.07908 | 3009 ft | 204 kts | 56° |
| 2026-05-05 15:16 | 40.80824 | 29.09537 | 3007 ft | 204 kts | 63° |
| 2026-05-05 15:16 | 40.81437 | 29.11211 | 3004 ft | 198 kts | 63° |
| 2026-05-05 15:16 | 40.82029 | 29.12808 | 3003 ft | 191 kts | 62° |
| 2026-05-05 15:16 | 40.82609 | 29.14374 | 2876 ft | 188 kts | 63° |
| 2026-05-05 15:17 | 40.83163 | 29.15870 | 2629 ft | 176 kts | 63° |
| 2026-05-05 15:17 | 40.83696 | 29.17307 | 2408 ft | 173 kts | 63° |
| 2026-05-05 15:17 | 40.84223 | 29.18729 | 2188 ft | 172 kts | 64° |
| 2026-05-05 15:17 | 40.84750 | 29.20149 | 1958 ft | 171 kts | 65° |
| 2026-05-05 15:18 | 40.85269 | 29.21550 | 1754 ft | 168 kts | 66° |
| 2026-05-05 15:18 | 40.85777 | 29.22924 | 1519 ft | 161 kts | 66° |
| 2026-05-05 15:18 | 40.86244 | 29.24193 | 1311 ft | 146 kts | 61° |
| 2026-05-05 15:18 | 40.86673 | 29.25379 | 1098 ft | 141 kts | 63° |
| 2026-05-05 15:19 | 40.87103 | 29.26522 | 927 ft | 137 kts | 61° |
| 2026-05-05 15:19 | 40.87528 | 29.27661 | 755 ft | 138 kts | 61° |
| 2026-05-05 15:19 | 40.87951 | 29.28795 | 579 ft | 139 kts | 62° |
| 2026-05-05 15:19 | 40.88379 | 29.29960 | 391 ft | 141 kts | 63° |
| 2026-05-05 15:20 | 40.88797 | 29.31092 | 291 ft | 126 kts | 64° |
| 2026-05-05 15:20 | 40.89078 | 29.31863 | 301 ft | 65 kts | 64° |
| 2026-05-05 15:20 | 40.89246 | 29.32282 | 301 ft | 46 kts | 52° |
| 2026-05-05 15:20 | 40.89403 | 29.32462 | 307 ft | 17 kts | 34° |
| 2026-05-05 15:21 | 40.89440 | 29.32496 | 307 ft | 5 kts | 35° |
| 2026-05-05 15:21 | 40.89480 | 29.32503 | 309 ft | 8 kts | 342° |
| 2026-05-05 15:21 | 40.89498 | 29.32424 | 307 ft | 12 kts | 265° |
| 2026-05-05 15:21 | 40.89558 | 29.32350 | 308 ft | 15 kts | 349° |
| 2026-05-05 15:22 | 40.89666 | 29.32302 | 307 ft | 18 kts | 334° |
| 2026-05-05 15:22 | 40.89789 | 29.32222 | 308 ft | 20 kts | 334° |
| 2026-05-05 15:22 | 40.89914 | 29.32139 | 314 ft | 20 kts | 333° |
| 2026-05-05 15:22 | 40.90030 | 29.32063 | 320 ft | 12 kts | 334° |
| 2026-05-05 15:23 | 40.90104 | 29.32092 | 319 ft | 14 kts | 62° |
| 2026-05-05 15:23 | 40.90150 | 29.32219 | 320 ft | 17 kts | 64° |
| 2026-05-05 15:23 | 40.90204 | 29.32365 | 319 ft | 19 kts | 64° |
| 2026-05-05 15:23 | 40.90257 | 29.32510 | 320 ft | 11 kts | 63° |
| 2026-05-05 15:24 | 40.90297 | 29.32576 | 320 ft | 4 kts | 27° |
| 2026-05-05 15:24 | 40.90298 | 29.32576 | 320 ft | 0 kts | 25° |
| 2026-05-05 15:24 | 40.90331 | 29.32578 | 319 ft | 11 kts | 349° |
| 2026-05-05 15:25 | 40.90418 | 29.32527 | 316 ft | 17 kts | 333° |
| 2026-05-05 15:25 | 40.90529 | 29.32455 | 318 ft | 17 kts | 334° |
| 2026-05-05 15:25 | 40.90605 | 29.32376 | 318 ft | 12 kts | 297° |
| 2026-05-05 15:25 | 40.90670 | 29.32308 | 320 ft | 12 kts | 334° |
| 2026-05-05 15:26 | 40.90734 | 29.32236 | 321 ft | 13 kts | 284° |
| 2026-05-05 15:26 | 40.90705 | 29.32137 | 318 ft | 11 kts | 243° |
| 2026-05-05 15:26 | 40.90674 | 29.32052 | 321 ft | 9 kts | 244° |
| 2026-05-05 15:26 | 40.90647 | 29.31981 | 320 ft | 8 kts | 244° |
| 2026-05-05 15:27 | 40.90624 | 29.31918 | 321 ft | 7 kts | 244° |
| 2026-05-05 15:27 | 40.90600 | 29.31851 | 321 ft | 9 kts | 244° |
| 2026-05-05 15:27 | 40.90582 | 29.31784 | 321 ft | 5 kts | 291° |
| 2026-05-05 15:27 | 40.90607 | 29.31756 | 321 ft | 4 kts | 330° |
| 2026-05-05 15:28 | 40.90629 | 29.31741 | 319 ft | 2 kts | 334° |
| 2026-05-05 15:28 | 40.90634 | 29.31738 | 321 ft | 0 kts | 334° |
| 2026-05-05 15:28 | 40.90635 | 29.31737 | 321 ft | 0 kts | 334° |
| 2026-05-05 15:28 | 40.90636 | 29.31737 | 321 ft | 0 kts | 334° |